Last 24 Hours

OV-Siberia 8700'

Hourly Data | America/Los_Angeles
as of 6/27/22 6:08 PM PDT
Date & Time Temp (°F) RH (%) Dew Pt (°F) Wet Bulb (°F) Wind Dir (°) Wind Spd (mph) Wind Gust (mph) WindChill (°F) Daily Min Temp (°F) Daily Max Temp (°F)
6/27/22 - 1800 64.9 27 30.1 46.8 WSW | 245 32.9 55.4 64.7 59.0 68.1
6/27/22 - 1700 64.3 26 28.8 46.2 WSW | 242 36.5 48.6 65.3 59.0 68.1
6/27/22 - 1600 66.7 25 29.4 47.4 WSW | 249 35.9 52.5 66.0 59.0 68.1
6/27/22 - 1500 66.9 23 28.0 47.0 W | 259 30.8 50.4 66.6 59.0 68.1
6/27/22 - 1400 67.1 26 31.5 48.2 W | 261 26.8 37.9 66.5 59.0 67.8
6/27/22 - 1300 65.5 25 29.0 46.7 WSW | 254 24.8 37.2 65.6 59.0 67.3
6/27/22 - 1200 64.2 31 33.1 47.6 WSW | 238 25.1 42.5 64.1 59.0 65.0
6/27/22 - 1100 63.7 29 31.1 46.7 WSW | 239 26.2 36.7 62.7 59.0 63.8
6/27/22 - 1000 62.1 27 27.7 44.9 SW | 231 20.7 32.5 61.3 59.0 62.7
6/27/22 - 0900 60.3 21 20.6 42.0 SW | 228 18.4 25.5 60.1 59.0 62.7
6/27/22 - 0800 59.4 21 19.7 41.4 SW | 221 17.6 22.4 59.7 59.0 62.7
6/27/22 - 0700 59.7 21 19.3 41.5 SW | 225 15.9 19.9 59.6 59.0 62.7
6/27/22 - 0600 59.2 20 17.6 40.9 SW | 225 12.8 19.3 60.3 59.1 62.7
6/27/22 - 0500 61.1 9 1.8 38.9 SW | 230 11.9 15.1 61.0 60.3 62.7
6/27/22 - 0400 61.9 8 -1.1 39.0 SW | 233 6.6 9.8 62.3 60.6 62.7
6/27/22 - 0300 62.5 7 -3.3 39.1 W | 272 0.2 5.1 62.4 60.6 62.7
6/27/22 - 0200 62.4 6 -4.6 38.8 W | 273 - 0.1 61.7 60.6 62.4
6/27/22 - 0100 61.1 7 -4.2 38.3 W | 273 - 0.1 61.9 61.1 62.4
6/27/22 - 0000 61.8 7 -3.4 38.7 W | 269 0.1 3.4 62.0 54.6 69.8
6/26/22 - 2300 62.2 7 -1.4 39.1 W | 263 7.9 13.3 61.5 54.6 69.8
6/26/22 - 2200 61.2 14 11.3 40.5 W | 264 15.2 20.4 60.2 54.6 69.8
6/26/22 - 2100 59.4 34 31.4 45.0 WSW | 249 20.8 28.0 60.5 54.6 69.8
6/26/22 - 2000 62.8 33 33.4 47.1 W | 259 23.9 31.8 63.9 54.6 69.8
6/26/22 - 1900 64.9 34 35.7 48.9 W | 265 26.1 35.5 65.4 54.6 69.8
6/26/22 - 1800 65.1 30 33.0 47.9 WSW | 254 29.5 40.4 66.2 54.6 69.8
Max 67.1 34 35.7 48.9 - 36.5 55.4 66.6 61.1 69.8
Avg 62.8 21 19.0 43.5 - 20.3 27.3 62.9 - -
Min 59.2 6 -4.6 38.3 - 0.1 0.1 59.6 54.6 62.4